Terminal Aerodrome Forecast
Issued by NWS Grand Junction, CO

Home | Current Version | Previous Version | Text Only | Print | Product List | Glossary On
Versions: 1 2 3 4 5 6 7 8 9 10 11 12
000
FTUS45 KGJT 191738
TAFGJT
TAF
KGJT 191738Z 1918/2018 16006KT P6SM BKN110
     FM191900 25006KT P6SM BKN110
     FM200200 09004KT P6SM BKN090
     FM200500 12005KT P6SM BKN090
     FM201600 16012G20KT P6SM FEW080=

USA.gov is the U.S. government's official web portal to all federal, state and local government web resources and services.